Time;durP1;ratioP1;P1;durP2;ratioP2;P2;SDS_P1;SDS_P2;PMS_P1;PMS_P2;Temp;Humidity;BMP_temperature;BMP_pressure;BME280_temperature;BME280_humidity;BME280_pressure;Samples;Min_cycle;Max_cycle;Signal;HPM_P1;HPM_P2
2022/07/25 00:00:17;;;;;;;15.60;14.27;;;;;;;-144.27;100.00;69759.91;2066024;28;20240;-76
2022/07/25 00:01:18;;;;;;;15.73;14.43;;;;;;;-144.27;100.00;69759.91;2074470;28;20218;-76
2022/07/25 00:02:19;;;;;;;16.53;15.23;;;;;;;-144.27;100.00;69759.91;2074362;28;20196;-77
2022/07/25 00:03:20;;;;;;;14.82;13.73;;;;;;;-144.27;100.00;69759.91;2074333;28;20188;-76
2022/07/25 00:04:22;;;;;;;15.00;13.63;;;;;;;-144.27;100.00;69759.91;2065581;28;20698;-76
2022/07/25 00:05:22;;;;;;;15.75;14.13;;;;;;;-144.27;100.00;69759.91;2065883;28;20272;-76
2022/07/25 00:06:28;;;;;;;16.10;14.70;;;;;;;-144.27;100.00;69759.91;2065223;28;20224;-76
2022/07/25 00:07:29;;;;;;;15.70;14.40;;;;;;;-144.27;100.00;69759.91;2066325;28;20703;-77
2022/07/25 00:08:31;;;;;;;15.33;14.13;;;;;;;-144.27;100.00;69759.91;2074149;28;20694;-77
2022/07/25 00:09:31;;;;;;;14.60;13.20;;;;;;;-144.27;100.00;69759.91;2065353;28;20684;-77
2022/07/25 00:10:33;;;;;;;15.27;14.03;;;;;;;-144.27;100.00;69759.91;2066036;28;20197;-77
2022/07/25 00:11:33;;;;;;;15.20;14.00;;;;;;;-144.27;100.00;69759.91;2065465;28;20235;-77
2022/07/25 00:12:37;;;;;;;15.93;14.43;;;;;;;-144.27;100.00;69759.91;2065932;28;20652;-77
2022/07/25 00:13:41;;;;;;;15.07;13.63;;;;;;;-144.27;100.00;69759.91;2066373;28;20212;-77
2022/07/25 00:14:43;;;;;;;15.10;13.70;;;;;;;-144.27;100.00;69759.91;2074150;28;20188;-77
2022/07/25 00:15:43;;;;;;;14.90;13.50;;;;;;;-144.27;100.00;69759.91;2065716;28;20208;-77
2022/07/25 00:16:45;;;;;;;15.90;13.20;;;;;;;-144.27;100.00;69759.91;2065595;28;20215;-77
2022/07/25 00:17:45;;;;;;;15.77;14.23;;;;;;;-144.27;100.00;69759.91;2074558;28;20279;-77
2022/07/25 00:18:47;;;;;;;15.27;14.07;;;;;;;-144.27;100.00;69759.91;2074209;28;20200;-77
2022/07/25 00:19:48;;;;;;;15.50;13.98;;;;;;;-144.27;100.00;69759.91;2074191;28;20185;-76
2022/07/25 00:20:50;;;;;;;15.97;13.93;;;;;;;-144.27;100.00;69759.91;2065789;28;20193;-76
2022/07/25 00:21:53;;;;;;;14.85;13.32;;;;;;;-144.27;100.00;69759.91;2065103;28;20819;-76
2022/07/25 00:22:53;;;;;;;15.27;13.68;;;;;;;-144.27;100.00;69759.91;2074242;28;20189;-77
2022/07/25 00:23:55;;;;;;;14.27;13.17;;;;;;;-144.27;100.00;69759.91;2065330;28;20303;-76
2022/07/25 00:24:56;;;;;;;14.10;13.07;;;;;;;-144.27;100.00;69759.91;2065670;28;20197;-76
2022/07/25 00:25:57;;;;;;;16.20;12.60;;;;;;;-144.27;100.00;69759.91;2065434;28;20208;-76
2022/07/25 00:27:00;;;;;;;17.00;13.68;;;;;;;-144.27;100.00;69759.91;2065490;28;20337;-76
2022/07/25 00:28:02;;;;;;;14.05;12.95;;;;;;;-144.27;100.00;69759.91;2065320;28;20564;-76
2022/07/25 00:29:03;;;;;;;13.40;12.20;;;;;;;-144.27;100.00;69759.91;2065595;28;20197;-76
2022/07/25 00:30:06;;;;;;;14.20;12.87;;;;;;;-144.27;100.00;69759.91;2065387;28;20252;-76
2022/07/25 00:31:06;;;;;;;14.23;12.93;;;;;;;-144.27;100.00;69759.91;2058003;28;20224;-77
2022/07/25 00:32:08;;;;;;;14.33;13.10;;;;;;;-144.27;100.00;69759.91;2065526;28;20724;-77
2022/07/25 00:33:08;;;;;;;14.85;13.60;;;;;;;-144.27;100.00;69759.91;2065557;28;20205;-77
2022/07/25 00:34:11;;;;;;;14.50;13.30;;;;;;;-144.27;100.00;69759.91;2065354;28;20208;-77
2022/07/25 00:35:13;;;;;;;13.90;12.82;;;;;;;-144.27;100.00;69759.91;2065690;28;20204;-77
2022/07/25 00:36:15;;;;;;;13.45;12.35;;;;;;;-144.27;100.00;69759.91;2073678;28;20614;-77
2022/07/25 00:37:17;;;;;;;13.65;12.55;;;;;;;-144.27;100.00;69759.91;2065435;28;20200;-77
2022/07/25 00:38:19;;;;;;;14.80;12.82;;;;;;;-144.27;100.00;69759.91;2057344;28;20241;-77
2022/07/25 00:39:19;;;;;;;15.35;12.50;;;;;;;-144.27;100.00;69759.91;2065345;28;20674;-77
2022/07/25 00:40:23;;;;;;;12.93;11.90;;;;;;;-144.27;100.00;69759.91;2073519;28;20545;-77
2022/07/25 00:41:24;;;;;;;14.23;12.75;;;;;;;-144.27;100.00;69759.91;2074201;28;20196;-77
2022/07/25 00:42:26;;;;;;;13.70;12.50;;;;;;;-144.27;100.00;69759.91;2065209;28;20288;-77
2022/07/25 00:43:27;;;;;;;14.15;12.95;;;;;;;-144.27;100.00;69759.91;2057236;28;20292;-77
2022/07/25 00:44:30;;;;;;;14.77;13.47;;;;;;;-144.27;100.00;69759.91;2065378;28;20197;-77
2022/07/25 00:45:32;;;;;;;15.48;13.93;;;;;;;-144.27;100.00;69759.91;2065652;28;20239;-77
2022/07/25 00:46:32;;;;;;;14.50;13.05;;;;;;;-144.27;100.00;69759.91;2074016;28;20192;-77
2022/07/25 00:47:38;;;;;;;14.60;13.20;;;;;;;-144.27;100.00;69759.91;2073818;28;20658;-77
2022/07/25 00:48:39;;;;;;;13.82;12.63;;;;;;;-144.27;100.00;69759.91;2065637;28;20576;-78
2022/07/25 00:49:41;;;;;;;14.98;13.50;;;;;;;-144.27;100.00;69759.91;2065497;28;20228;-78
2022/07/25 00:50:43;;;;;;;14.82;13.48;;;;;;;-144.27;100.00;69759.91;2065258;28;20317;-77
2022/07/25 00:51:43;;;;;;;14.90;13.70;;;;;;;-144.27;100.00;69759.91;2064949;28;20217;-77
2022/07/25 00:52:47;;;;;;;14.70;13.43;;;;;;;-144.27;100.00;69759.91;2074235;28;20180;-77
2022/07/25 00:53:48;;;;;;;14.10;12.95;;;;;;;-144.27;100.00;69759.91;2074036;28;20587;-76
2022/07/25 00:54:50;;;;;;;15.33;13.23;;;;;;;-144.27;100.00;69759.91;2074098;28;20215;-76
2022/07/25 00:55:51;;;;;;;14.35;13.13;;;;;;;-144.27;100.00;69759.91;2074187;28;20525;-76
2022/07/25 00:56:53;;;;;;;15.75;13.00;;;;;;;-144.27;100.00;69759.91;2073976;28;20192;-76
2022/07/25 00:57:53;;;;;;;14.27;12.93;;;;;;;-144.27;100.00;69759.91;2065286;28;20236;-76
2022/07/25 00:58:55;;;;;;;14.67;13.33;;;;;;;-144.27;100.00;69759.91;2065219;28;20593;-76
2022/07/25 00:59:55;;;;;;;14.45;12.98;;;;;;;-144.27;100.00;69759.91;2065192;28;20196;-76
2022/07/25 01:00:57;;;;;;;13.80;12.60;;;;;;;-144.27;100.00;69759.91;2065290;28;20185;-76
2022/07/25 01:02:00;;;;;;;14.70;13.35;;;;;;;-144.27;100.00;69759.91;2073941;28;20666;-76
2022/07/25 01:03:02;;;;;;;15.13;13.73;;;;;;;-144.27;100.00;69759.91;2073993;28;20184;-76
2022/07/25 01:04:04;;;;;;;14.88;13.60;;;;;;;-144.27;100.00;69759.91;2065172;28;20193;-76
2022/07/25 01:05:07;;;;;;;14.75;13.15;;;;;;;-144.27;100.00;69759.91;2065385;28;20193;-77
2022/07/25 01:06:08;;;;;;;14.93;13.43;;;;;;;-144.27;100.00;69759.91;2073483;28;20231;-76
2022/07/25 01:07:10;;;;;;;15.30;13.70;;;;;;;-144.27;100.00;69759.91;2065429;28;20659;-77
2022/07/25 01:08:14;;;;;;;15.05;13.55;;;;;;;-144.27;100.00;69759.91;2065187;28;20228;-76
2022/07/25 01:09:17;;;;;;;21.40;13.52;;;;;;;-144.27;100.00;69759.91;2065784;28;20204;-76
2022/07/25 01:10:18;;;;;;;14.43;13.13;;;;;;;-144.27;100.00;69759.91;2073841;28;20212;-77
2022/07/25 01:11:20;;;;;;;14.03;12.73;;;;;;;-144.27;100.00;69759.91;2065198;28;20199;-76
2022/07/25 01:12:21;;;;;;;15.13;13.43;;;;;;;-144.27;100.00;69759.91;2064827;28;20205;-76
2022/07/25 01:13:22;;;;;;;14.27;13.07;;;;;;;-144.27;100.00;69759.91;2065249;28;20330;-77
2022/07/25 01:14:23;;;;;;;15.93;13.48;;;;;;;-144.27;100.00;69759.91;2073074;28;20625;-76
2022/07/25 01:15:25;;;;;;;14.47;12.67;;;;;;;-144.27;100.00;69759.91;2065164;28;20217;-76
2022/07/25 01:16:26;;;;;;;13.18;12.18;;;;;;;-144.27;100.00;69759.91;2065110;28;20233;-76
2022/07/25 01:17:27;;;;;;;13.60;12.50;;;;;;;-144.27;100.00;69759.91;2065914;28;20195;-76
2022/07/25 01:18:28;;;;;;;16.77;13.60;;;;;;;-144.27;100.00;69759.91;2065155;28;20193;-77
2022/07/25 01:19:30;;;;;;;13.60;12.27;;;;;;;-144.27;100.00;69759.91;2065277;28;20193;-76
2022/07/25 01:20:32;;;;;;;13.90;12.70;;;;;;;-144.27;100.00;69759.91;2065243;28;20200;-76
2022/07/25 01:21:33;;;;;;;13.70;12.45;;;;;;;-144.27;100.00;69759.91;2064815;28;20228;-76
2022/07/25 01:22:35;;;;;;;14.18;12.80;;;;;;;-144.27;100.00;69759.91;2065167;28;20287;-77
2022/07/25 01:23:38;;;;;;;15.25;12.80;;;;;;;-144.27;100.00;69759.91;2065775;28;20216;-76
2022/07/25 01:24:39;;;;;;;14.07;12.40;;;;;;;-144.27;100.00;69759.91;2065883;28;20243;-76
2022/07/25 01:25:40;;;;;;;16.17;13.33;;;;;;;-144.27;100.00;69759.91;2065028;28;20251;-76
2022/07/25 01:26:41;;;;;;;14.80;13.32;;;;;;;-144.27;100.00;69759.91;2065198;28;20185;-76
2022/07/25 01:27:43;;;;;;;13.33;12.33;;;;;;;-144.27;100.00;69759.91;2065810;28;20181;-76
2022/07/25 01:28:44;;;;;;;13.90;12.65;;;;;;;-144.27;100.00;69759.91;2065772;28;20209;-76
2022/07/25 01:29:45;;;;;;;14.03;12.63;;;;;;;-144.27;100.00;69759.91;2065727;28;20189;-76
2022/07/25 01:30:46;;;;;;;14.05;12.77;;;;;;;-144.27;100.00;69759.91;2065919;28;20231;-76
2022/07/25 01:31:48;;;;;;;13.90;12.63;;;;;;;-144.27;100.00;69759.91;2065878;28;20190;-76
2022/07/25 01:32:48;;;;;;;13.38;12.15;;;;;;;-144.27;100.00;69759.91;2065960;28;20280;-76
2022/07/25 01:33:50;;;;;;;14.60;12.50;;;;;;;-144.27;100.00;69759.91;2065727;28;20189;-76
2022/07/25 01:34:51;;;;;;;14.15;12.85;;;;;;;-144.27;100.00;69759.91;2065727;28;20232;-75
2022/07/25 01:35:54;;;;;;;14.47;13.10;;;;;;;-144.27;100.00;69759.91;2065952;28;20189;-76
2022/07/25 01:36:58;;;;;;;15.65;12.80;;;;;;;-144.27;100.00;69759.91;2064979;28;20220;-76
2022/07/25 01:38:00;;;;;;;13.10;12.00;;;;;;;-144.27;100.00;69759.91;2065215;28;20189;-76
2022/07/25 01:39:01;;;;;;;13.90;12.60;;;;;;;-144.27;100.00;69759.91;2065218;28;20197;-76
2022/07/25 01:40:04;;;;;;;16.13;13.47;;;;;;;-144.27;100.00;69759.91;2065370;28;20196;-76
2022/07/25 01:41:05;;;;;;;14.95;13.63;;;;;;;-144.27;100.00;69759.91;2065008;28;20208;-76
2022/07/25 01:42:07;;;;;;;14.27;12.67;;;;;;;-144.27;100.00;69759.91;2057048;28;20200;-76
2022/07/25 01:43:10;;;;;;;13.95;12.52;;;;;;;-144.27;100.00;69759.91;2065348;28;20193;-76
2022/07/25 01:44:13;;;;;;;13.70;12.40;;;;;;;-144.27;100.00;69759.91;2065736;28;20197;-76
2022/07/25 01:45:14;;;;;;;12.95;11.80;;;;;;;-144.27;100.00;69759.91;2065729;28;20534;-76
2022/07/25 01:46:16;;;;;;;13.67;12.57;;;;;;;-144.27;100.00;69759.91;2065108;28;20223;-76
2022/07/25 01:47:16;;;;;;;13.40;12.20;;;;;;;-144.27;100.00;69759.91;2065127;28;20193;-76
2022/07/25 01:48:18;;;;;;;14.27;12.87;;;;;;;-144.27;100.00;69759.91;2065895;28;20189;-76
2022/07/25 01:49:19;;;;;;;14.60;12.98;;;;;;;-144.27;100.00;69759.91;2065792;28;20231;-76
2022/07/25 01:50:21;;;;;;;14.17;12.80;;;;;;;-144.27;100.00;69759.91;2065671;28;20220;-76
2022/07/25 01:51:23;;;;;;;13.43;12.32;;;;;;;-144.27;100.00;69759.91;2064579;28;20601;-77
2022/07/25 01:52:25;;;;;;;12.93;11.82;;;;;;;-144.27;100.00;69759.91;2065562;28;20271;-77
2022/07/25 01:53:26;;;;;;;16.35;12.07;;;;;;;-144.27;100.00;69759.91;2065846;28;20315;-76
2022/07/25 01:54:27;;;;;;;13.73;12.50;;;;;;;-144.27;100.00;69759.91;2065775;28;20193;-76
2022/07/25 01:55:28;;;;;;;13.52;12.23;;;;;;;-144.27;100.00;69759.91;2065637;28;20201;-76
2022/07/25 01:56:29;;;;;;;14.23;12.90;;;;;;;-144.27;100.00;69759.91;2065041;28;20284;-76
2022/07/25 01:57:30;;;;;;;13.75;12.40;;;;;;;-144.27;100.00;69759.91;2065086;28;20279;-76
2022/07/25 01:58:32;;;;;;;13.80;12.50;;;;;;;-144.27;100.00;69759.91;2065662;28;20200;-76
2022/07/25 01:59:35;;;;;;;14.00;12.55;;;;;;;-144.27;100.00;69759.91;2064948;28;20684;-76
2022/07/25 02:00:37;;;;;;;14.57;13.18;;;;;;;-144.27;100.00;69759.91;2066487;28;20186;-76
2022/07/25 02:01:38;;;;;;;13.95;12.50;;;;;;;-144.27;100.00;69759.91;2066798;28;20192;-77
2022/07/25 02:02:40;;;;;;;14.07;12.73;;;;;;;-144.27;100.00;69759.91;2066527;28;20204;-76
2022/07/25 02:03:41;;;;;;;12.68;11.63;;;;;;;-144.27;100.00;69759.91;2066661;28;20272;-77
2022/07/25 02:04:44;;;;;;;12.50;11.50;;;;;;;-144.27;100.00;69759.91;2066473;28;20193;-76
2022/07/25 02:05:46;;;;;;;12.50;11.38;;;;;;;-144.27;100.00;69759.91;2066530;28;20193;-76
2022/07/25 02:06:51;;;;;;;14.02;12.52;;;;;;;-144.27;100.00;69759.91;2066765;28;20683;-77
2022/07/25 02:07:51;;;;;;;13.30;11.98;;;;;;;-144.27;100.00;69759.91;2066458;28;20209;-77
2022/07/25 02:08:53;;;;;;;13.80;11.63;;;;;;;-144.27;100.00;69759.91;2066509;28;20201;-77
2022/07/25 02:09:53;;;;;;;14.10;12.68;;;;;;;-144.27;100.00;69759.91;2066726;28;20200;-76
2022/07/25 02:10:57;;;;;;;12.80;11.53;;;;;;;-144.27;100.00;69759.91;2066942;28;20699;-76
2022/07/25 02:12:00;;;;;;;13.45;12.13;;;;;;;-144.27;100.00;69759.91;2067043;28;20216;-77
2022/07/25 02:13:02;;;;;;;13.30;12.10;;;;;;;-144.27;100.00;69759.91;2066372;28;20220;-76
2022/07/25 02:14:04;;;;;;;12.88;11.77;;;;;;;-144.27;100.00;69759.91;2066497;28;20200;-77
2022/07/25 02:15:06;;;;;;;12.70;11.60;;;;;;;-144.27;100.00;69759.91;2066994;28;20215;-77
2022/07/25 02:16:07;;;;;;;13.18;11.98;;;;;;;-144.27;100.00;69759.91;2066133;28;20248;-76
2022/07/25 02:17:08;;;;;;;12.43;11.38;;;;;;;-144.27;100.00;69759.91;2066478;28;20193;-76
2022/07/25 02:18:11;;;;;;;12.00;10.90;;;;;;;-144.27;100.00;69759.91;2066396;28;20695;-76
2022/07/25 02:19:13;;;;;;;11.90;10.80;;;;;;;-144.27;100.00;69759.91;2066365;28;20232;-76
2022/07/25 02:20:15;;;;;;;12.23;11.15;;;;;;;-144.27;100.00;69759.91;2066418;28;20782;-76
2022/07/25 02:21:15;;;;;;;11.70;10.63;;;;;;;-144.27;100.00;69759.91;2066538;28;20232;-76
2022/07/25 02:22:18;;;;;;;11.20;10.20;;;;;;;-144.27;100.00;69759.91;2065215;28;20197;-76
2022/07/25 02:23:19;;;;;;;13.73;10.30;;;;;;;-144.27;100.00;69759.91;2066535;28;20665;-76
2022/07/25 02:24:20;;;;;;;10.83;9.93;;;;;;;-144.27;100.00;69759.91;2059119;28;20549;-77
2022/07/25 02:25:21;;;;;;;10.50;9.52;;;;;;;-144.27;100.00;69759.91;2059122;28;20193;-77
2022/07/25 02:26:26;;;;;;;10.83;9.93;;;;;;;-144.27;100.00;69759.91;2058265;28;20194;-76
2022/07/25 02:27:27;;;;;;;10.38;9.48;;;;;;;-144.27;100.00;69759.91;2058544;28;20943;-76
2022/07/25 02:28:28;;;;;;;10.87;9.90;;;;;;;-144.27;100.00;69759.91;2058893;28;20546;-76
2022/07/25 02:29:29;;;;;;;11.18;9.95;;;;;;;-144.27;100.00;69759.91;2059214;28;20198;-76
2022/07/25 02:30:31;;;;;;;12.30;9.97;;;;;;;-144.27;100.00;69759.91;2058944;28;20668;-76
2022/07/25 02:31:32;;;;;;;11.30;10.30;;;;;;;-144.27;100.00;69759.91;2058971;28;20203;-76
2022/07/25 02:32:35;;;;;;;11.27;10.23;;;;;;;-144.27;100.00;69759.91;2058867;28;20197;-76
2022/07/25 02:33:36;;;;;;;11.73;10.50;;;;;;;-144.27;100.00;69759.91;2058831;28;20284;-76
2022/07/25 02:34:38;;;;;;;11.32;10.43;;;;;;;-144.27;100.00;69759.91;2058207;28;20647;-77
2022/07/25 02:35:39;;;;;;;11.65;10.70;;;;;;;-144.27;100.00;69759.91;2058270;28;20287;-77
2022/07/25 02:36:40;;;;;;;12.00;11.00;;;;;;;-144.27;100.00;69759.91;2058652;28;20218;-76
2022/07/25 02:37:42;;;;;;;13.68;10.40;;;;;;;-144.27;100.00;69759.91;2058185;28;20292;-76
2022/07/25 02:38:46;;;;;;;11.05;10.15;;;;;;;-144.27;100.00;69759.91;2058131;28;20293;-77
2022/07/25 02:39:47;;;;;;;12.00;10.45;;;;;;;-144.27;100.00;69759.91;2058268;28;20193;-76
2022/07/25 02:40:50;;;;;;;11.85;10.95;;;;;;;-144.27;100.00;69759.91;2058817;28;20664;-76
2022/07/25 02:41:51;;;;;;;12.25;11.05;;;;;;;-144.27;100.00;69759.91;2058795;28;20212;-76
2022/07/25 02:42:53;;;;;;;13.33;11.40;;;;;;;-144.27;100.00;69759.91;2058157;28;20224;-76
2022/07/25 02:43:53;;;;;;;12.45;10.55;;;;;;;-144.27;100.00;69759.91;2058211;28;20300;-77
2022/07/25 02:44:55;;;;;;;12.93;11.10;;;;;;;-144.27;100.00;69759.91;2058226;28;20186;-76
2022/07/25 02:45:56;;;;;;;11.48;10.52;;;;;;;-144.27;100.00;69759.91;2058224;28;20210;-76
2022/07/25 02:47:00;;;;;;;11.13;10.13;;;;;;;-144.27;100.00;69759.91;2058296;28;20224;-76
2022/07/25 02:48:01;;;;;;;11.02;10.23;;;;;;;-144.27;100.00;69759.91;2058093;28;20321;-76
2022/07/25 02:49:03;;;;;;;11.40;10.40;;;;;;;-144.27;100.00;69759.91;2058196;28;20186;-76
2022/07/25 02:50:05;;;;;;;11.27;10.30;;;;;;;-144.27;100.00;69759.91;2058041;28;20577;-77
2022/07/25 02:51:07;;;;;;;10.93;10.13;;;;;;;-144.27;100.00;69759.91;2057483;28;20586;-77
2022/07/25 02:52:13;;;;;;;11.32;10.43;;;;;;;-144.27;100.00;69759.91;2058149;28;20205;-76
2022/07/25 02:53:20;;;;;;;10.90;9.82;;;;;;;-144.27;100.00;69759.91;2058424;28;20213;-76
2022/07/25 02:54:22;;;;;;;10.68;9.75;;;;;;;-144.27;100.00;69759.91;2058119;28;20200;-76
2022/07/25 02:55:23;;;;;;;11.30;10.07;;;;;;;-144.27;100.00;69759.91;2058071;28;20256;-76
2022/07/25 02:56:24;;;;;;;11.52;10.45;;;;;;;-144.27;100.00;69759.91;2066147;28;20671;-76
2022/07/25 02:57:26;;;;;;;11.40;10.37;;;;;;;-144.27;100.00;69759.91;2058746;28;20622;-76
2022/07/25 02:58:26;;;;;;;10.25;9.48;;;;;;;-144.27;100.00;69759.91;2058672;28;20234;-76
2022/07/25 02:59:28;;;;;;;10.60;9.70;;;;;;;-144.27;100.00;69759.91;2057718;28;20672;-76
2022/07/25 03:00:38;;;;;;;11.68;10.52;;;;;;;-144.27;100.00;69759.91;2058025;28;20641;-76
2022/07/25 03:01:38;;;;;;;11.50;10.30;;;;;;;-144.27;100.00;69759.91;2058163;28;20276;-76
2022/07/25 03:02:40;;;;;;;10.60;9.70;;;;;;;-144.27;100.00;69759.91;2058705;28;20186;-76
2022/07/25 03:03:41;;;;;;;11.02;10.10;;;;;;;-144.27;100.00;69759.91;2057941;28;20194;-76
2022/07/25 03:04:42;;;;;;;16.63;10.63;;;;;;;-144.27;100.00;69759.91;2058053;28;20685;-76
2022/07/25 03:05:43;;;;;;;11.52;10.43;;;;;;;-144.27;100.00;69759.91;2058758;28;20397;-76
2022/07/25 03:06:45;;;;;;;11.00;10.10;;;;;;;-144.27;100.00;69759.91;2057712;28;20246;-75
2022/07/25 03:07:46;;;;;;;12.23;10.27;;;;;;;-144.27;100.00;69759.91;2058068;28;20186;-76
2022/07/25 03:08:49;;;;;;;11.90;10.77;;;;;;;-144.27;100.00;69759.91;2057954;28;20201;-76
2022/07/25 03:09:50;;;;;;;11.00;9.93;;;;;;;-144.27;100.00;69759.91;2058019;28;20678;-76
2022/07/25 03:10:51;;;;;;;10.63;9.57;;;;;;;-144.27;100.00;69759.91;2057634;28;20574;-76
2022/07/25 03:11:52;;;;;;;10.82;9.82;;;;;;;-144.27;100.00;69759.91;2057866;28;20214;-76
2022/07/25 03:12:54;;;;;;;10.60;9.70;;;;;;;-144.27;100.00;69759.91;2057956;28;20230;-76
2022/07/25 03:13:57;;;;;;;10.70;9.70;;;;;;;-144.27;100.00;69759.91;2058013;28;20197;-76
2022/07/25 03:15:03;;;;;;;10.93;9.85;;;;;;;-144.27;100.00;69759.91;2058410;28;20217;-76
2022/07/25 03:16:06;;;;;;;11.57;10.02;;;;;;;-144.27;100.00;69759.91;2062224;28;20237;-76
2022/07/25 03:17:06;;;;;;;11.05;9.95;;;;;;;-144.27;100.00;69759.91;2057934;28;20285;-76
2022/07/25 03:18:08;;;;;;;16.17;9.20;;;;;;;-144.27;100.00;69759.91;2049902;29;20198;-76
2022/07/25 03:19:10;;;;;;;10.23;9.40;;;;;;;-144.27;100.00;69759.91;2049878;28;20300;-76
2022/07/25 03:20:12;;;;;;;12.57;9.73;;;;;;;-144.27;100.00;69759.91;2057937;28;20616;-77
2022/07/25 03:21:13;;;;;;;14.93;9.60;;;;;;;-144.27;100.00;69759.91;2057431;28;20248;-77
2022/07/25 03:22:15;;;;;;;11.20;10.10;;;;;;;-144.27;100.00;69759.91;2057884;28;20716;-77
2022/07/25 03:23:16;;;;;;;10.10;9.30;;;;;;;-144.27;100.00;69759.91;2057828;28;20282;-76
2022/07/25 03:24:19;;;;;;;10.17;9.37;;;;;;;-144.27;100.00;69759.91;2058221;28;20193;-75
2022/07/25 03:25:19;;;;;;;12.52;9.43;;;;;;;-144.27;100.00;69759.91;2066494;28;20192;-76
2022/07/25 03:26:21;;;;;;;13.73;9.83;;;;;;;-144.27;100.00;69759.91;2057480;28;20208;-76
2022/07/25 03:27:22;;;;;;;11.30;9.85;;;;;;;-144.27;100.00;69759.91;2057945;28;20716;-76
2022/07/25 03:28:26;;;;;;;10.87;9.87;;;;;;;-144.27;100.00;69759.91;2057873;28;20582;-76
2022/07/25 03:29:27;;;;;;;10.88;9.95;;;;;;;-144.27;100.00;69759.91;2058181;28;20217;-76
2022/07/25 03:30:29;;;;;;;10.53;9.63;;;;;;;-144.27;100.00;69759.91;2057834;28;20222;-76
2022/07/25 03:31:30;;;;;;;11.07;9.82;;;;;;;-144.27;100.00;69759.91;2057689;28;20316;-76
2022/07/25 03:32:31;;;;;;;11.07;9.97;;;;;;;-144.27;100.00;69759.91;2057778;28;20198;-76
2022/07/25 03:33:32;;;;;;;11.57;10.55;;;;;;;-144.27;100.00;69759.91;2058062;28;20237;-77
2022/07/25 03:34:35;;;;;;;15.47;10.47;;;;;;;-144.27;100.00;69759.91;2057738;28;20200;-76
2022/07/25 03:35:37;;;;;;;14.95;10.05;;;;;;;-144.27;100.00;69759.91;2058033;28;20202;-76
2022/07/25 03:36:38;;;;;;;10.52;9.43;;;;;;;-144.27;100.00;69759.91;2057322;28;20225;-76
2022/07/25 03:37:39;;;;;;;11.10;10.10;;;;;;;-144.27;100.00;69759.91;2057811;28;20194;-76
2022/07/25 03:38:41;;;;;;;12.03;10.93;;;;;;;-144.27;100.00;69759.91;2065368;28;20684;-76
2022/07/25 03:39:43;;;;;;;12.05;10.77;;;;;;;-144.27;100.00;69759.91;2065933;28;20670;-76
2022/07/25 03:40:46;;;;;;;11.93;10.48;;;;;;;-144.27;100.00;69759.91;2066368;28;20193;-76
2022/07/25 03:41:48;;;;;;;10.80;9.90;;;;;;;-144.27;100.00;69759.91;2066382;28;20223;-76
2022/07/25 03:42:50;;;;;;;10.80;9.80;;;;;;;-144.27;100.00;69759.91;2057659;28;20228;-76
2022/07/25 03:43:50;;;;;;;11.05;9.98;;;;;;;-144.27;100.00;69759.91;2057716;28;20197;-76
2022/07/25 03:44:52;;;;;;;11.17;10.07;;;;;;;-144.27;100.00;69759.91;2057649;28;20193;-76
2022/07/25 03:45:52;;;;;;;10.45;9.43;;;;;;;-144.27;100.00;69759.91;2057649;28;20208;-76
2022/07/25 03:46:54;;;;;;;10.37;9.47;;;;;;;-144.27;100.00;69759.91;2057624;28;20201;-76
2022/07/25 03:47:55;;;;;;;10.85;9.80;;;;;;;-144.27;100.00;69759.91;2065817;28;20320;-76
2022/07/25 03:48:57;;;;;;;10.27;9.37;;;;;;;-144.27;100.00;69759.91;2066415;28;20656;-76
2022/07/25 03:49:57;;;;;;;10.73;9.73;;;;;;;-144.27;100.00;69759.91;2066409;28;20213;-76
2022/07/25 03:51:00;;;;;;;11.13;9.57;;;;;;;-144.27;100.00;69759.91;2065820;28;20196;-75
2022/07/25 03:52:01;;;;;;;11.45;10.45;;;;;;;-144.27;100.00;69759.91;2066302;28;20261;-76
2022/07/25 03:53:03;;;;;;;11.63;10.43;;;;;;;-144.27;100.00;69759.91;2066289;28;20189;-76
2022/07/25 03:54:04;;;;;;;12.25;10.95;;;;;;;-144.27;100.00;69759.91;2057533;28;20209;-76
2022/07/25 03:55:11;;;;;;;10.60;9.57;;;;;;;-144.27;100.00;69759.91;2057647;28;20224;-76
2022/07/25 03:56:13;;;;;;;11.23;10.13;;;;;;;-144.27;100.00;69759.91;2057612;28;20194;-76
2022/07/25 03:57:15;;;;;;;11.85;10.48;;;;;;;-144.27;100.00;69759.91;2057846;28;20225;-76
2022/07/25 03:58:16;;;;;;;10.93;9.82;;;;;;;-144.27;100.00;69759.91;2066246;28;20352;-76
2022/07/25 03:59:19;;;;;;;10.87;9.40;;;;;;;-144.27;100.00;69759.91;2066480;28;20188;-76
2022/07/25 04:00:20;;;;;;;11.68;10.60;;;;;;;-144.27;100.00;69759.91;2057536;28;20298;-76
2022/07/25 04:01:22;;;;;;;11.48;10.27;;;;;;;-144.27;100.00;69759.91;2057724;28;20202;-78
2022/07/25 04:02:23;;;;;;;11.52;10.43;;;;;;;-144.27;100.00;69759.91;2057662;28;20208;-75
2022/07/25 04:03:26;;;;;;;16.37;11.47;;;;;;;-144.27;100.00;69759.91;2057062;28;20597;-76
2022/07/25 04:04:26;;;;;;;11.70;10.40;;;;;;;-144.27;100.00;69759.91;2057783;28;20194;-76
2022/07/25 04:05:29;;;;;;;12.07;10.63;;;;;;;-144.27;100.00;69759.91;2066206;28;20220;-74
2022/07/25 04:06:29;;;;;;;12.18;10.90;;;;;;;-144.27;100.00;69759.91;2065618;28;20642;-75
2022/07/25 04:07:31;;;;;;;12.57;11.37;;;;;;;-144.27;100.00;69759.91;2066352;28;20197;-75
2022/07/25 04:08:33;;;;;;;12.07;10.95;;;;;;;-144.27;100.00;69759.91;2057459;28;20263;-75
2022/07/25 04:09:35;;;;;;;11.63;10.52;;;;;;;-144.27;100.00;69759.91;2058001;28;20667;-75
2022/07/25 04:10:38;;;;;;;12.63;10.85;;;;;;;-144.27;100.00;69759.91;2066394;28;20236;-75
2022/07/25 04:11:40;;;;;;;12.50;10.57;;;;;;;-144.27;100.00;69759.91;2066190;28;20675;-75
2022/07/25 04:12:40;;;;;;;18.98;10.88;;;;;;;-144.27;100.00;69759.91;2057395;28;20209;-76
2022/07/25 04:13:42;;;;;;;12.60;10.37;;;;;;;-144.27;100.00;69759.91;2057746;28;20237;-76
2022/07/25 04:14:42;;;;;;;10.57;9.55;;;;;;;-144.27;100.00;69759.91;2057361;28;20237;-75
2022/07/25 04:15:44;;;;;;;11.40;10.40;;;;;;;-144.27;100.00;69759.91;2057441;28;20672;-76
2022/07/25 04:16:45;;;;;;;12.73;10.55;;;;;;;-144.27;100.00;69759.91;2066015;28;20714;-75
2022/07/25 04:17:47;;;;;;;11.20;9.30;;;;;;;-144.27;100.00;69759.91;2066330;28;20244;-74
2022/07/25 04:18:49;;;;;;;11.77;10.52;;;;;;;-144.27;100.00;69759.91;2066314;28;20239;-75
2022/07/25 04:19:52;;;;;;;11.18;9.88;;;;;;;-144.27;100.00;69759.91;2057333;28;20260;-75
2022/07/25 04:20:53;;;;;;;12.80;11.55;;;;;;;-144.27;100.00;69759.91;2048846;28;20217;-75
2022/07/25 04:21:54;;;;;;;12.63;11.17;;;;;;;-144.27;100.00;69759.91;2057502;28;20196;-75
2022/07/25 04:22:55;;;;;;;11.20;10.15;;;;;;;-144.27;100.00;69759.91;2064862;28;20236;-75
2022/07/25 04:23:59;;;;;;;11.97;10.77;;;;;;;-144.27;100.00;69759.91;2065519;28;20200;-75
2022/07/25 04:25:05;;;;;;;12.32;11.02;;;;;;;-144.27;100.00;69759.91;2066058;28;20189;-75
2022/07/25 04:26:07;;;;;;;11.75;10.55;;;;;;;-144.27;100.00;69759.91;2066040;28;20192;-75
2022/07/25 04:27:08;;;;;;;12.00;10.27;;;;;;;-144.27;100.00;69759.91;2057353;28;20257;-75
2022/07/25 04:28:09;;;;;;;12.48;11.25;;;;;;;-144.27;100.00;69759.91;2057415;28;20560;-75
2022/07/25 04:29:10;;;;;;;14.87;12.07;;;;;;;-144.27;100.00;69759.91;2066011;28;20256;-76
2022/07/25 04:30:12;;;;;;;17.13;11.55;;;;;;;-144.27;100.00;69759.91;2057320;28;20225;-75
2022/07/25 04:31:14;;;;;;;13.38;12.05;;;;;;;-144.27;100.00;69759.91;2057392;28;20185;-75
2022/07/25 04:32:18;;;;;;;15.05;11.95;;;;;;;-144.27;100.00;69759.91;2066012;28;20728;-75
2022/07/25 04:33:23;;;;;;;13.00;11.70;;;;;;;-144.27;100.00;69759.91;2066027;28;20200;-75
2022/07/25 04:34:23;;;;;;;12.13;10.93;;;;;;;-144.27;100.00;69759.91;2057260;28;20203;-76